CLAS PETT   ATLETA DATA CAT TEAM GG TEMPO GAP MEDIA
  Donne - Unica  
1 645 GROTTI ADRIANA 1969 DO TEAM RCR PIANETA BIC 3 1h43:08.400 17,45
2 706 COVA SARA 1970 DO GB JUNIOR TEAM 3 1h44:11.400 +1:03.000 17,27
3 670 MARTA ERIKA 1982 DO GREST BARBERA 3 1h46:05.700 +2:57.300 16,96
4 311 RIVA FRANCESCA 1984 DO TRB HERSH RACING TEA 3 1h48:35.100 +5:26.700 16,57
5 83 BERTULETTI CRISTINA 1966 DO VALCERESIO BIKE 3 1h48:50.100 +5:41.700 16,53
6 741 DEL GRANDE SIMONA 1975 DO DOCTOR BIKE 3 1h51:21.100 +8:12.700 16,16
7 609 BERTOLA KATIA 1969 DO MTB EVALOON 3 1h52:12.400 +9:04.000 16,04
8 717 BIENATI SHERYL REGINA 1991 DO LORIS BIKE 3 1h53:37.600 +10:29.200 15,84
9 478 BELLATTI SABRINA 1964 DO CLAMAS TEAM 3 1h58:45.300 +15:36.900 15,15
10 740 SFORZA GIULIA 1995 DO LORIS BIKE 1 36:44.300 +2 Giri 16,33
  Primavera | 14-16 anni  
1 345 BATTILOTTI RENATO 2004 PR TRB HERSH RACING TEA 3 1h40:24.100 17,92
2 353 BELTRAMI FRANCESCO 2004 PR TEAM USLENGHI 3 1h41:32.600 +1:08.500 17,72
3 709 PLANCA SAMUELE 2004 PR I VELOCIPEDI 3 1h50:06.300 +9:42.200 16,34
4 529 FUSARO STEFANO 2005 PR PAIRAGHESE 3 1h53:35.300 +13:11.200 15,84
5 312 RONCHESE CRISTIAN 2004 PR TEAM USLENGHI 1 34:49.500 +2 Giri 17,22
  Debuttanti / Juniores | 17-29 anni  
1 733 RIZZOTTO CHRISTIAN 1994 DJ CICLI MAGGIONI TEAM 3 1h18:07.800 23,03
2 714 DE BIASIO ANDREA 1991 DJ MILANO CYCLING 3 1h18:26.200 18.400 22,94
3 62 RONCORONI GIACOMO 1993 DJ MTB FALCHI BLU 3 1h18:26.800 19.000 22,94
4 682 BOTTELLI MATTIA 1992 DJ NOVO TEAM 3 1h20:11.800 +2:04.000 22,44
5 651 RUGGIRELLO MIRKO 1995 DJ DARRA RACING TEAM 3 1h23:26.000 +5:18.200 21,57
6 625 AVANZI GIORDANO 1996 DJ FM BIKE FACTORY TEAM 3 1h26:33.000 +8:25.200 20,79
7 679 ARCOLIN ANDREA 1990 DJ I VELOCIPEDI 3 1h26:44.800 +8:37.000 20,75
8 28 ANGLANA SIMONE 1996 DJ GS PREALPINO 3 1h28:26.500 +10:18.700 20,35
9 722 VALCOZZENA MATTIA 1991 DJ FORUM RACINGTEAM 3 1h30:21.500 +12:13.700 19,92
10 677 ARCOLIN VALENTINO 1995 DJ TEAM VALDERA BIKE 3 1h33:20.700 +15:12.900 19,28
11 686 MIANO ANDREA 1991 DJ FASTBIKE 3 1h33:48.700 +15:40.900 19,18
12 702 BULOTTA FEDERICO 1993 DJ HR TEAM 3 1h38:56.400 +20:48.600 18,19
13 254 CASTINI STEFANO 1990 DJ LORIS BIKE 3 1h39:22.900 +21:15.100 18,11
14 498 MELIS MATTIA 2002 DJ MTB S.MARTINO 3 1h40:25.100 +22:17.300 17,92
15 707 PIZZOLATO ROBERTO 1993 DJ TEAM DOCTOR BIKE 3 1h46:23.100 +28:15.300 16,91
16 693 MILANI LUCA 1991 DJ GS PEREGO 3 1h46:51.100 +28:43.300 16,84
17 199 ZANOTTI DAVIDE 1993 DJ TEAM DOCTOR BIKE 3 1h46:58.600 +28:50.800 16,82
18 644 MOTTA ANDREA 2000 DJ MTB EVALOON 3 1h49:50.300 +31:42.500 16,38
19 736 DELLA BELLA SIMONE 1997 DJ MTB EVALOON 3 1h54:11.100 +36:03.300 15,76
20 200 BALLACE ANDREA 1993 DJ TEAM DOCTOR BIKE 2 1h02:35.200 +1 Giro 19,17
21 586 ASTORRI STEFANO 1991 DJ GEMINI TEAM 1 31:50.500 +2 Giri 18,84
  Master 1 | 30-34 anni  
1 656 LORENZETTI MATTIA 1987 M1 GIULIANI CICLI 3 1h16:52.200 23,41
2 3 GIRARDI EDOARDO 1985 M1 TEAM ALL4CYCLING 3 1h18:46.500 +1:54.300 22,84
3 218 LECCADITO ROBERTO 1989 M1 SKORPIONI 3 1h19:09.500 +2:17.300 22,73
4 716 SOMMARIVA LUCA 1986 M1 CYCLING TEAM OLTREPO 3 1h19:44.500 +2:52.300 22,57
5 743 MONTEMURRO ALESSIO 1987 M1 TEAM BRENNA 3 1h21:06.700 +4:14.500 22,19
6 2 GIRARDI FEDERICO 1989 M1 TEAM ALL4CYCLING 3 1h22:48.200 +5:56.000 21,73
7 643 LUIDELLI DIEGO 1986 M1 MTB CINGHIOS RACING  3 1h23:56.700 +7:04.500 21,44
8 197 BRUSTIA DANIELE 1988 M1 RCR PIANETA BICI 3 1h25:17.900 +8:25.700 21,1
9 652 MIANO DANIELE 1986 M1 FAST BIKE 3 1h25:50.900 +8:58.700 20,96
10 45 GROTTI MARCO 1987 M1 TEAM VIPER TICINO 3 1h26:37.900 +9:45.700 20,77
11 678 MONTICELLI ALESSANDRO 1987 M1 CICLI JOLLY 3 1h26:55.400 +10:03.200 20,7
12 38 CONFORTI ALESSANDRO 1985 M1 TEAM MTB LOMAZZO 3 1h28:05.400 +11:13.200 20,43
13 734 BECCALI ALESSANDRO 1985 M1 CICLOSPORT TIDON VAL 3 1h28:18.100 +11:25.900 20,38
14 600 PELLEGRINO ALESSIO 1987 M1 DUAL BIKE CANTU' 3 1h28:25.100 +11:32.900 20,35
15 30 BARBATO ALBERTO 1987 M1 LC BRUGHERIO DUE 3 1h29:21.400 +12:29.200 20,14
16 681 DE CESARIS ALESSANDRO 1985 M1 NOVO TEAM 3 1h33:31.400 +16:39.200 19,24
17 73 TREZZI ALBERTO 1988 M1 MTB EVALOON 3 1h38:43.000 +21:50.800 18,23
18 248 FINATTI DAVIDE 1987 M1 PASSO LENTO ROVELLAS 3 1h41:06.800 +24:14.600 17,8
19 690 MEROLA DONATO 1985 M1 FASTBIKE 3 1h42:19.500 +25:27.300 17,59
20 60 PASELLO STEFANO 1986 M1 TEAM VIPER TICINO 3 1h50:08.200 +33:16.000 16,34
21 695 CACCIA MATTEO 1985 M1 POLISP.PETTENASCO MT 3 2h03:14.800 +46:22.600 14,6
22 534 MONDINI MARCO 1985 M1 CLAMAS TEAM 2 56:41.400 +1 Giro 21,16
23 692 MILANI MATTEO 1986 M1 GS PEREGO 1 29:40.700 +2 Giri 20,21
  Master 2 | 35-39 anni  
1 13 ARICI SIMONE 1980 M2 FM BIKE FACTORY TEAM 3 1h15:52.500 23,72
2 649 SALMOIRAGHI DIEGO 1981 M2 CLAMAS TEAM 3 1h19:10.800 +3:18.300 22,73
3 737 CIPOLLA SIMONE 1983 M2 TEAM ALL4CYCLING 3 1h19:14.500 +3:22.000 22,71
4 650 AGRINI ALESANDRO 1980 M2 TEAM USLENGHI 3 1h20:08.700 +4:16.200 22,45
5 666 ZANGARI ANDREA 1982 M2 ASD MTB SUISIO 3 1h20:35.000 +4:42.500 22,33
6 41 D'AMBROS GIANLUCA 1980 M2 TEAM VIPER TICINO 3 1h21:04.000 +5:11.500 22,2
7 738 GRECO ROSARIO 1981 M2 MAGICUNEO 3 1h21:04.700 +5:12.200 22,2
8 32 BIANCO MARCO 1982 M2 CICLI BATTISTELLA 3 1h21:29.700 +5:37.200 22,08
9 728 MANCUSO GIUSEPPE 1984 M2 NEWSCICLISMO.COM 3 1h21:40.000 +5:47.500 22,04
10 404 PORRINI UMBERTO RINALDO 1980 M2 DAMAR 2.0 3 1h24:02.700 +8:10.200 21,41
11 12 SCHIEVENIN STEFANO 1980 M2 TEAM VIPER TICINO 3 1h25:06.700 +9:14.200 21,14
12 635 CARO MATTEO 1983 M2 NOVO TEAM 3 1h25:21.700 +9:29.200 21,08
13 626 CLIVIO MARCO 1984 M2 TEAM VIPER TICINO 3 1h25:46.700 +9:54.200 20,98
14 713 DONą ALESSANDRO 1982 M2 BIKE & RUN CREMA 3 1h26:23.200 +10:30.700 20,83
15 720 BRUSCHI STEFANO 1982 M2 COOP RIZZOTTO 3 1h26:28.700 +10:36.200 20,81
16 33 BOZZINI PAOLO 1980 M2 DARRA RACING TEAM 3 1h27:41.200 +11:48.700 20,52
17 40 CRAPIS JIMMY 1982 M2 TEAM VIPER TICINO 3 1h28:19.700 +12:27.200 20,37
18 31 BELLONI ANDREA 1982 M2 TEAM VIPER TICINO 3 1h30:47.400 +14:54.900 19,82
19 680 MAIOCCHI SERGIO 1980 M2 CICLI JOLLY 3 1h31:34.100 +15:41.600 19,65
20 59 PASELLO MATTEO 1981 M2 TEAM VIPER TICINO 3 1h31:59.400 +16:06.900 19,56
21 82 OLIVETO ANTONIO 1982 M2 HR TEAM 3 1h32:05.600 +16:13.100 19,54
22 34 CALABRESE LUIGI 1980 M2 GS MARCELLI 3 1h32:12.600 +16:20.100 19,52
23 663 AIRAGA FRANCESCO 1983 M2 ASD MOTTY TEAM BIKE 3 1h36:08.100 +20:15.600 18,72
24 39 CONTE LUCA 1982 M2 CLAMAS TEAM 3 1h36:44.300 +20:51.800 18,6
25 718 MARANGON MATTEO 1981 M2 COOP RIZZOTTO 3 1h37:04.600 +21:12.100 18,54
26 731 TOSI MARCO 1984 M2 ASD MAKAKO TEAM 3 1h37:41.600 +21:49.100 18,42
27 703 PARISOTTO LUCA 1981 M2 MTB EVALOON 3 1h38:03.800 +22:11.300 18,35
28 36 CIOLLI THOMAS 1980 M2 US LEGNANESE 3 1h38:59.100 +23:06.600 18,18
29 697 ACERBI DAVIDE GIOVANNI 1982 M2 US LEGNANESE 3 1h39:25.600 +23:33.100 18,1
30 58 MONDA ANTONIO 1981 M2 MTB EVALOON 3 1h40:22.600 +24:30.100 17,93
31 48 LUCENTI STEFANO 1981 M2 MTB EVALOON 3 1h42:03.500 +26:11.000 17,63
32 37 CLIVIO ALESSANDRO 1981 M2 TEAM VIPER TICINO 3 1h44:12.500 +28:20.000 17,27
33 44 GALLI STEFANO 1982 M2 MTB EVALOON 3 1h45:36.300 +29:43.800 17,04
34 729 MILLOCH ALESSIO 1984 M2 ZERO CYCLING TEAM 3 1h46:44.500 +30:52.000 16,86
35 688 MARAN DANIELE 1983 M2 NAZIONALE 3 1h48:30.700 +32:38.200 16,58
36 468 DIMAGLI ROSARIO 1983 M2 SOLBIATESE 2 1h18:44.300 +1 Giro 15,24
  Master 3 | 40-44 anni  
1 264 PEREZ STEFANO 1975 M3 VC MENDISIO 3 1h18:11.500 23,02
2 87 PIVOTTO CLAUDIO 1979 M3 CLAMAS TEAM 3 1h21:38.400 +3:26.900 22,04
3 85 MISURACA ANTONIO 1975 M3 GS MARCELLI 3 1h21:38.700 +3:27.200 22,04
4 11 SCALA ANDREA 1979 M3 TEAM VIPER TICINO 3 1h22:54.700 +4:43.200 21,7
5 665 GRANATO BENIAMINO 1976 M3 TEAM ALL4CYCLING 3 1h23:31.900 +5:20.400 21,54
6 572 QUINTAVALLE LIVIO 1976 M3 SPEED WHEEL 3 1h23:43.200 +5:31.700 21,5
7 57 MISURACA ANDREA 1978 M3 GS MARCELLI 3 1h23:53.200 +5:41.700 21,45
8 623 TAFFURI STEFANO 1976 M3 CLAMAS TEAM 3 1h24:27.100 +6:15.600 21,31
9 75 VECCHIO DAVIDE 1977 M3 AGRATE CONTURBIA 3 1h27:12.600 +9:01.100 20,63
10 730 PARISE MANUEL 1976 M3 DAMAR 2.0 3 1h27:36.400 +9:24.900 20,54
11 721 BRUSCHI GIANLUCA 1979 M3 COOP RIZZOTTO 3 1h27:44.400 +9:32.900 20,51
12 495 ORLANDI IVO 1977 M3 TEAM MTB LOMAZZO 3 1h28:15.100 +10:03.600 20,39
13 699 BRACCO CARLO 1977 M3 ASD RAT RIDE ALL TER 3 1h28:20.600 +10:09.100 20,37
14 528 FUSARO SIMONE 1975 M3 MTB EVALOON 3 1h28:54.900 +10:43.400 20,24
15 630 TRAVAGLINI MIRKO 1978 M3 TEAM POLIZIA MILANO 3 1h29:03.400 +10:51.900 20,21
16 51 MARMORALE MASSIMO 1975 M3 TEAM BENINI NOVARA 3 1h29:29.800 +11:18.300 20,11
17 624 MANDELLI SIMONE 1977 M3 BICIAIO 3 1h30:11.600 +12:00.100 19,95
18 742 DURANTE ALBERTO OLINDO 1977 M3 ASD RMS SQUADRA CORS 3 1h30:33.800 +12:22.300 19,87
19 334 MADDALENA DOMENICO 1975 M3 SKORPIONI 3 1h31:28.600 +13:17.100 19,67
20 68 SCHIEVENIN ANDREA 1977 M3 TEAM VIPER TICINO 3 1h31:31.300 +13:19.800 19,66
21 661 CREMA MAURIZIO 1975 M3 DAMAR 2.0 3 1h31:45.100 +13:33.600 19,61
22 74 VAROLI GIANLUCA 1976 M3 MTB EVALOON 3 1h31:51.300 +13:39.800 19,59
23 194 STRADA COSIMO 1977 M3 ORANGE TEAM 3 1h32:52.100 +14:40.600 19,38
24 390 DONADIO MASSIMILIANO 1975 M3 GS PREALPINO 3 1h33:00.800 +14:49.300 19,35
25 620 MOLINARI MARCO 1978 M3 WET LIFE RIDOTTIALLO 3 1h33:27.800 +15:16.300 19,25
26 251 CISLAGHI ADRIANO 1975 M3 DAMAR 2.0 3 1h33:42.600 +15:31.100 19,2
27 628 CORDA MAURIZIO 1976 M3 FAST BIKE 3 1h33:52.100 +15:40.600 19,17
28 684 SILVERIO GIANMARIO 1979 M3 DARRA RACING TEAM 3 1h34:05.800 +15:54.300 19,12
29 35 CAVA ADRIANO 1977 M3 CLAMAS TEAM 3 1h35:36.500 +17:25.000 18,82
30 439 MASSARENTI MARCO 1976 M3 MTB OLEGGIO 3 1h36:34.300 +18:22.800 18,63
31 662 DE GIOVANNINI DARIO 1979 M3 ASD MOTTY TEAM BIKE 3 1h37:04.800 +18:53.300 18,54
32 64 ROSSINI ALBERTO 1978 M3 TEAM USLENGHI 3 1h37:25.300 +19:13.800 18,47
33 24 ESPOSITO ROBERTO 1978 M3 DOCTOR BIKE 3 1h39:04.500 +20:53.000 18,16
34 658 CASTIGLIONE SALVATORE 1979 M3 IL BICICLO TEAM NEW  3 1h41:16.200 +23:04.700 17,77
35 705 DE PIERI ANDREA 1979 M3 US LEGNANESE 3 1h44:04.700 +25:53.200 17,29
36 91 CURRŅ STEFANO 1977 M3 TEAM USLENGHI 3 1h54:18.100 +36:06.600 15,74
37 492 VENEGONI MASSIMO 1978 M3 HR TEAM 3 1h54:33.100 +36:21.600 15,71
38 704 PIZZO GIORGIO 1977 M3 HR TEAM 3 1h55:39.600 +37:28.100 15,56
39 92 DI DIO RAGUSA GIORGIO 1979 M3 AUTOCAR MOZZATE 3 1h59:33.100 +41:21.600 15,05
40 671 TAGLIETTI ALESSANDRO 1977 M3 GIANGIS TEAM 3 2h07:47.700 +49:36.200 14,08
41 63 ROSSI ANDREA 1975 M3 TEAM VIPER TICINO 2 1h12:13.500 +1 Giro 16,61
  Master 4 | 45-49 anni  
1 111 AGOSTINONE DOMENICO 1970 M4 HR TEAM 3 1h17:14.300 23,3
2 396 BONALDA GRAZIANO 1974 M4 CICLI MAGGIONI 3 1h18:18.800 +1:04.500 22,98
3 675 RICCARDI ANGELO 1971 M4 BICITIME RACING TEAM 3 1h23:49.400 +6:35.100 21,47
4 4 BALLARE GABRIELE 1972 M4 HR TEAM 3 1h27:45.400 +10:31.100 20,51
5 668 SCHIROSI AUGUSTO 1973 M4 PRO PATRIA ARC BUSTO 3 1h29:02.700 +11:48.400 20,21
6 700 FAVERO FABRIZIO 1972 M4 ZERO CYCLING TEAM 3 1h29:12.100 +11:57.800 20,17
7 6 BRIGHENTI FABIO 1972 M4 UGGIATESE BICI BIKE  3 1h30:32.900 +13:18.600 19,87
8 10 VENTURINI PAOLO 1973 M4 TEAM VIPER TICINO 3 1h32:54.400 +15:40.100 19,37
9 640 MARIANI DAVIDE 1971 M4 ASD CICLI BETTONI 3 1h34:05.100 +16:50.800 19,13
10 26 ALBRIZIO PIETRO 1970 M4 LC BRUGHERIO DUE 3 1h34:29.100 +17:14.800 19,05
11 633 CRUSCO ATTILIO 1973 M4 TEAM MTB LOMAZZO 3 1h34:53.800 +17:39.500 18,96
12 86 MISURACA FABRIZIO 1970 M4 GS MARCELLI 3 1h35:05.800 +17:51.500 18,92
13 629 CACCIALANZA JOSČ 1973 M4 MAGHERNO BIKE 3 1h35:28.300 +18:14.000 18,85
14 687 MORANDI LORENZO 1974 M4 TEAM ALL4CYCLING 3 1h35:46.600 +18:32.300 18,79
15 66 SARTO FRANCESCO 1973 M4 HR TEAM 3 1h36:11.800 +18:57.500 18,71
16 655 GUERINI ANDREA 1974 M4 BICITIME RACING TEAM 3 1h36:21.800 +19:07.500 18,67
17 300 BUZZETTI MAURO 1972 M4 GS PREALPINO 3 1h36:25.100 +19:10.800 18,66
18 659 NALDI ANDREA 1973 M4 TENATESE DAL MOLIN 3 1h37:03.800 +19:49.500 18,54
19 638 ONDEI CARLO ANGELO 1971 M4 TEAM VALLE OLONA 3 1h37:10.300 +19:56.000 18,52
20 641 MASTRIA GIANCARLO 1971 M4 VELO LAINATE 3 1h37:44.600 +20:30.300 18,41
21 724 VALENTI ANDREA 1972 M4 SKORPIONI 3 1h38:06.100 +20:51.800 18,34
22 701 BRANCALEON DAVIDE 1973 M4 NEWSCICLISMO.COM 3 1h38:53.300 +21:39.000 18,2
23 691 MENAGGIA STEFANO 1974 M4 ALBY BIKE 3 1h41:01.300 +23:47.000 17,81
24 292 BRUGALI GIUSEPPE 1973 M4 TEAM VIPER TICINO 3 1h42:09.300 +24:55.000 17,62
25 723 VICECONTI REMO 1971 M4 SKORPIONI 3 1h42:09.800 +24:55.500 17,61
26 673 DIRENZO FORTUNATO 1974 M4 BICITIME RACING TEAM 3 1h42:10.800 +24:56.500 17,61
27 49 LUONI EROS 1972 M4 TEAM USLENGHI 3 1h42:17.500 +25:03.200 17,59
28 660 GORLA MARCO 1973 M4 ASD EQUIPE CORBETTES 3 1h42:21.800 +25:07.500 17,58
29 654 MARAIO LORENZO 1971 M4 FAST BIKE 3 1h46:21.000 +29:06.700 16,92
30 19 LANDONIO STEFANO 1974 M4 HELIOS 3 1h46:25.700 +29:11.400 16,91
31 241 SCIOLI ANDREA 1970 M4 TEAM MTB LOMAZZO 3 1h53:22.200 +36:07.900 15,87
32 50 MACORIG LORENZO 1970 M4 TEAM MTB LOMAZZO 3 2h07:44.300 +50:30.000 14,09
  Master 5 | 50-54 anni  
1 99 CERRUTO CARMELO 1967 M5 HR TEAM 3 1h21:55.400 21,97
2 647 GEROSA ENDRIO 1966 M5 TEAM RCR PIANETA BIC 3 1h23:44.900 +1:49.500 21,49
3 72 TOSI FABIO 1968 M5 AIRBIKE CRAL ALENIA 3 1h23:48.200 +1:52.800 21,47
4 53 MARTINI ANDREA 1966 M5 GS MARCELLI 3 1h24:43.700 +2:48.300 21,24
5 639 CARLIN SANDRO 1968 M5 MTB EVALOON 3 1h26:34.600 +4:39.200 20,79
6 696 SORDI FABRIZIO 1965 M5 LC BRUGHERIO DUE 3 1h27:44.600 +5:49.200 20,51
7 440 BARBERO RICCARDO 1969 M5 MTB OLEGGIO 3 1h29:04.600 +7:09.200 20,2
8 727 CORRADINI ATTILIO 1966 M5 HR TEAM 3 1h29:42.900 +7:47.500 20,06
9 689 SONZOGNI GIANLUIGI 1967 M5 GB JUNIOR TEAM 3 1h30:02.900 +8:07.500 19,98
10 637 GIUSTO ABRAMO 1969 M5 TEAM VALLE OLONA 3 1h30:49.900 +8:54.500 19,81
11 617 COLOMBO LUCA 1969 M5 ASD TEAM BUSTO BIKE 3 1h31:12.600 +9:17.200 19,73
12 631 BERTI MAURO 1967 M5 DARRA RACING TEAM 3 1h32:01.600 +10:06.200 19,55
13 667 ZANARDELLI ALBERTO 1966 M5 FM BIKE FACTORY TEAM 3 1h32:19.600 +10:24.200 19,49
14 674 CREMONA GIACOMO 1966 M5 CLAMAS TEAM 3 1h32:29.100 +10:33.700 19,46
15 715 TURSI MAURO 1966 M5 LORIS BIKE 3 1h32:38.600 +10:43.200 19,42
16 219 CASERTA LORENZO 1966 M5 HR TEAM 3 1h33:45.100 +11:49.700 19,19
17 331 PIATTO ALESSIO 1969 M5 NOVO TEAM 3 1h34:24.600 +12:29.200 19,06
18 238 MACULAN MARCO 1967 M5 NOVO TEAM 3 1h34:24.800 +12:29.400 19,06
19 622 SANTORO MAURO 1966 M5 BUSTO GAROLFO 3 1h34:42.600 +12:47.200 19
20 56 MILANATO VALERIO 1968 M5 TEAM MTB LOMAZZO 3 1h34:45.800 +12:50.400 18,99
21 506 VERRENGIA ITALO 1968 M5 DAMAR 2.0 3 1h36:09.300 +14:13.900 18,71
22 187 FERRAZZINI GIUSEPPE 1966 M5 SKORPIONI 3 1h36:52.300 +14:56.900 18,58
23 279 MIGLIAVACCA AURELIO 1966 M5 HR TEAM 3 1h37:15.500 +15:20.100 18,5
24 646 BACARELLA GIUSEPPE 1968 M5 CLAMAS TEAM 3 1h37:39.000 +15:43.600 18,43
25 698 FISICHELLA ALFIO 1965 M5 ZERO CYCLING TEAM 3 1h38:17.800 +16:22.400 18,31
26 29 ARRIGONI GIANLUIGI 1967 M5 TEAM BENINI NOVARA 3 1h41:29.000 +19:33.600 17,73
27 14 CELOZZI BIAGIO 1968 M5 HR TEAM 3 1h45:09.500 +23:14.100 17,11
28 65 SAIBENI GIUSEPPE 1966 M5 MTB EVALOON 3 1h49:48.900 +27:53.500 16,39
29 55 MENIN FABIO PAOLO 1968 M5 AIRBIKE CRAL ALENIA 3 1h50:07.700 +28:12.300 16,34
30 634 SERAFINI MAURO 1967 M5 DARRA RACING TEAM 3 1h54:02.700 +32:07.300 15,78
31 627 NALDI MAURIZIO 1969 M5 DOCTOR BIKE 3 1h54:10.100 +32:14.700 15,76
32 676 TREZZI ROBERTO 1966 M5 GB JUNIOR TEAM 3 1h55:53.400 +33:58.000 15,53
33 303 ZADRA MAURIZIO 1968 M5 TENATESE DAL MOLIN 3 1h56:47.100 +34:51.700 15,41
34 618 BOVO STEFANO 1969 M5 I VELOCIPEDI 3 2h00:32.100 +38:36.700 14,93
35 90 GERACI SALVATORE 1966 M5 TEAM BICIMANIA 3 2h18:45.200 +56:49.800 12,97
36 732 BASSANI PIERLUIGI 1965 M5 AIRBIKE CRAL ALENIA 3 2h22:03.600 +1h00:08.200 12,67
37 526 CASCIOLI FEDERICO 1966 M5 HR TEAM 3 2h25:48.100 +1h03:52.700 12,34
  Master 6 | 55-59 anni  
1 621 BERLUSCONI MASSIMO 1962 M6 TEAM SPACEBIKES 3 1h19:56.900 22,51
2 198 IACONELLI SERGIO 1964 M6 FIGHT VIELLE 3 1h26:50.100 +6:53.200 20,72
3 428 MANZONI ROBERTO 1963 M6 XBIKE 3 1h27:26.600 +7:29.700 20,58
4 78 VILUPPI CLAUDIO 1962 M6 MTB EVALOON 3 1h28:58.300 +9:01.400 20,23
5 616 SIMIONATO MAURO 1960 M6 SKORPIONI 3 1h33:55.800 +13:58.900 19,16
6 16 MUSCA CARMELO 1963 M6 AGRATE CONTURBIA 3 1h37:00.800 +17:03.900 18,55
7 708 SBARRA GIANLUCA 1964 M6 LISSONE MTB 3 1h39:45.500 +19:48.600 18,04
8 81 VIALE CLAUDIO 1962 M6 PRO PATRIA ARC BUSTO 3 1h39:55.700 +19:58.800 18,01
9 273 BAGATTINI MASSIMO 1961 M6 MTB OLEGGIO 3 1h40:08.700 +20:11.800 17,97
10 619 PAGANIN VALTER 1961 M6 DAMAR 2.0 3 1h42:58.700 +23:01.800 17,47
11 726 MAPELLI CARLO 1960 M6 RTM PROTEK DADA 3 1h44:55.700 +24:58.800 17,15
12 80 VERZENI GIOVANNI 1962 M6 HR TEAM 3 1h46:35.000 +26:38.100 16,88
13 683 CATTANEO CESARE 1964 M6 ASD TEAM SOL 3 1h47:54.700 +27:57.800 16,68
14 672 PASSIU MAURIZIO 1962 M6 BICITIME RACING TEAM 3 1h48:43.100 +28:46.200 16,55
15 84 MASCIOCCHI ROBERTO 1964 M6 BIKETEAM SEREGNO 3 1h51:20.600 +31:23.700 16,16
16 712 REGONDI FRANCO 1961 M6 TEAM SCOUTBIKE.COM 3 2h00:54.300 +40:57.400 14,88
17 54 MELI ALESSANDRO 1964 M6 TEAM VIPER TICINO 3 2h09:42.200 +49:45.300 13,87
18 76 VERNUCCIO ALESSANDRO 1961 M6 HR TEAM 3 2h28:56.500 +1h08:59.600 12,08
  Master 7+ | Over 60 anni  
1 694 VALERIO FRANCO 1959 M7+ THE LAKE BIKERS 3 1h30:56.800 19,79
2 636 SCORBATI LUIGI 1954 M7+ VELOCLUB PAVIA 3 1h33:00.800 +2:04.000 19,35
3 735 GARLASCHE' GIULIANO 1956 M7+ AUZATE 3 1h33:11.000 +2:14.200 19,31
4 596 PROVINO ANTONIO 1959 M7+ MAZZUCCHELLI RACING  3 1h35:50.300 +4:53.500 18,78
5 657 BOLCHINI MASSIMO 1957 M7+ DARRA RACING TEAM 3 1h40:52.000 +9:55.200 17,84
6 632 SINIGAGLIA DANIELE 1954 M7+ WILLIAM'S SPORT CLUB 3 1h41:01.200 +10:04.400 17,81
7 93 BUSCHINI FAUSTO 1957 M7+ LORIS BIKE 3 1h42:10.700 +11:13.900 17,61
8 685 SARTOR GAETANO 1956 M7+ LORIS BIKE 3 1h44:46.700 +13:49.900 17,17
9 642 GANDOLFI GRAZIANO 1951 M7+ MTB EVALOON 3 1h47:04.400 +16:07.600 16,81
10 653 GIORI ALBERTO 1959 M7+ VANZAVILLA TEAM 3 1h48:15.900 +17:19.100 16,62
11 27 ALFIERI UMBERTO 1957 M7+ TEAM USLENGHI 3 1h48:22.100 +17:25.300 16,61
12 648 CAROZZI PAOLO 1952 M7+ EUROBIKE 3 1h50:55.100 +19:58.300 16,22
13 615 BALLARE GIOVANNI 1946 M7+ HR TEAM 3 1h51:59.400 +21:02.600 16,07
14 725 BINCHI GIUSEPPE 1957 M7+ DARRA RACING TEAM 3 1h52:43.900 +21:47.100 15,96
15 711 BONI MAURIZIO 1959 M7+ TEAM SCOUTBIKE.COM 3 2h04:00.000 +33:03.200 14,51
  Escursionisti / e-bikers  
1 1154 GIRARDINI NICOLA 1980 CT 3 1h33:16.400 19,29
2 1155 NEGRETTO PAOLO 1974 CT 3 1h36:45.100 +3:28.700 18,6
3 1116 RUGGIRELLO CLAUDIO CT DARRA RACING TEAM 3 1h40:28.100 +7:11.700 17,91
4 1162 BORRELLA JARI CT 3 1h44:50.100 +11:33.700 17,16
5 1148 ZAVAGNIN MATTIA CT 3 1h50:02.300 +16:45.900 16,35
6 1156 FREGONI SILVIO 1976 CT 3 1h50:45.500 +17:29.100 16,25
7 1157 CATTANEO LUCA 1972 CT 3 1h56:58.200 +23:41.800 15,38
8 1151 PINI MASSIMO CT 3 1h57:01.500 +23:45.100 15,38
9 1 FERRARIO GIANNI 1968 CT HR TEAM 3 1h57:41.200 +24:24.800 15,29
10 1146 TERRANOVA MARCO 1984 CT MTB EVALOON 3 2h05:14.400 +31:58.000 14,37
11 1147 RUSSILLO DAVIDE 1971 CT 3 2h05:30.900 +32:14.500 14,34
12 1161 GUANZIROLI ANDREA 1995 CT 3 2h08:49.600 +35:33.200 13,97
13 1159 STRADELLA CARLO 1989 CT 3 2h10:30.400 +37:14.000 13,79
14 1150 CROCI PAOLO 1969 CT 3 2h13:09.600 +39:53.200 13,51
15 1149 PASSAFARO MATTEO CT 3 2h17:00.500 +43:44.100 13,13
16 1158 GALIZIA GIORGIO 1985 CT 2 1h28:14.500 +1 Giro 13,59
17 1160 PIGOZZI MATTIA 1989 CT 2 1h43:08.600 +1 Giro 11,63